Time;durP1;ratioP1;P1;durP2;ratioP2;P2;SDS_P1;SDS_P2;PMS_P1;PMS_P2;Temp;Humidity;BMP_temperature;BMP_pressure;BME280_temperature;BME280_humidity;BME280_pressure;Samples;Min_cycle;Max_cycle;Signal;HPM_P1;HPM_P2
2023/08/30 00:02:20;;;;;;;2.70;1.05;;;18.80;74.60;;;;;;2287287;55;20954;-67
2023/08/30 00:04:46;;;;;;;2.30;1.10;;;18.80;74.60;;;;;;2286752;55;20970;-68
2023/08/30 00:07:13;;;;;;;2.03;1.00;;;18.80;74.50;;;;;;2521537;55;21491;-69
2023/08/30 00:09:40;;;;;;;3.92;1.20;;;18.70;74.40;;;;;;2286769;56;20950;-67
2023/08/30 00:12:07;;;;;;;2.97;1.40;;;18.70;74.40;;;;;;2521142;55;20927;-68
2023/08/30 00:14:34;;;;;;;2.30;1.20;;;18.70;74.50;;;;;;2286598;55;21016;-67
2023/08/30 00:17:01;;;;;;;2.90;1.10;;;18.70;75.30;;;;;;2520490;55;21006;-71
2023/08/30 00:19:28;;;;;;;2.75;1.65;;;18.70;74.80;;;;;;2282703;55;20986;-70
2023/08/30 00:21:54;;;;;;;2.53;1.52;;;18.70;75.10;;;;;;2520911;55;21029;-71
2023/08/30 00:24:20;;;;;;;3.67;1.40;;;18.60;74.80;;;;;;2286654;55;20930;-68
2023/08/30 00:26:47;;;;;;;2.50;1.50;;;18.60;74.80;;;;;;2286649;55;20938;-68
2023/08/30 00:29:13;;;;;;;2.70;1.55;;;18.60;74.90;;;;;;2521045;55;20990;-67
2023/08/30 00:31:40;;;;;;;2.80;1.65;;;18.60;75.00;;;;;;2521255;55;20946;-67
2023/08/30 00:34:08;;;;;;;2.62;1.30;;;18.60;75.00;;;;;;2516390;55;21032;-70
2023/08/30 00:36:34;;;;;;;3.22;1.50;;;18.60;75.00;;;;;;2516679;54;20974;-70
2023/08/30 00:39:02;;;;;;;2.70;1.50;;;18.60;75.10;;;;;;2286218;55;21047;-71
2023/08/30 00:41:28;;;;;;;2.30;1.40;;;18.60;75.10;;;;;;2521241;55;20935;-70
2023/08/30 00:43:55;;;;;;;2.20;1.30;;;18.60;75.10;;;;;;2520422;55;21046;-69
2023/08/30 00:46:21;;;;;;;3.10;1.52;;;18.60;75.20;;;;;;2520645;55;21002;-71
2023/08/30 00:48:47;;;;;;;2.50;1.50;;;18.60;75.10;;;;;;2510707;54;20976;-70
2023/08/30 00:51:15;;;;;;;2.87;1.67;;;18.60;75.10;;;;;;2493667;55;21495;-70
2023/08/30 00:53:41;;;;;;;2.08;1.10;;;18.60;75.10;;;;;;2520286;55;21002;-70
2023/08/30 00:56:07;;;;;;;2.60;1.48;;;18.60;75.10;;;;;;2286331;55;21737;-69
2023/08/30 00:58:34;;;;;;;2.50;1.23;;;18.60;75.80;;;;;;2286762;55;20943;-70
2023/08/30 01:01:00;;;;;;;2.80;1.58;;;18.60;75.10;;;;;;2519952;55;20979;-71
2023/08/30 01:03:27;;;;;;;2.20;1.20;;;18.60;75.00;;;;;;2519348;54;20968;-71
2023/08/30 01:05:53;;;;;;;2.35;1.40;;;18.60;75.00;;;;;;2516813;54;21050;-71
2023/08/30 01:08:20;;;;;;;2.87;1.27;;;18.60;75.00;;;;;;2520690;55;20955;-70
2023/08/30 01:17:34;;;;;;;3.33;1.20;;;18.60;75.00;;;;;;2520454;55;20990;-68
2023/08/30 01:20:08;;;;;;;1.58;0.77;;;18.60;73.70;;;;;;2264194;55;21451;-69
2023/08/30 01:23:09;;;;;;;2.50;1.20;;;18.60;74.70;;;;;;2521010;55;21710;-67
2023/08/30 01:25:53;;;;;;;2.83;1.23;;;18.50;74.00;;;;;;2520557;55;20994;-70
2023/08/30 01:28:21;;;;;;;2.30;1.20;;;18.50;74.40;;;;;;2512545;54;21052;-69
2023/08/30 01:30:48;;;;;;;2.83;1.50;;;18.50;74.90;;;;;;2518351;55;20978;-70
2023/08/30 01:33:18;;;;;;;2.30;1.15;;;18.40;74.90;;;;;;2516610;55;20999;-71
2023/08/30 01:35:45;;;;;;;2.20;1.40;;;18.40;75.10;;;;;;2284350;56;21036;-67
2023/08/30 01:38:11;;;;;;;3.15;1.50;;;18.40;75.20;;;;;;2284845;55;20931;-68
2023/08/30 01:40:42;;;;;;;2.70;1.60;;;18.40;75.20;;;;;;2286593;55;21014;-68
2023/08/30 01:43:08;;;;;;;2.75;1.40;;;18.40;75.10;;;;;;2520009;55;20946;-67
2023/08/30 01:45:43;;;;;;;2.40;1.20;;;18.40;75.20;;;;;;2515951;55;20956;-66
2023/08/30 01:48:13;;;;;;;2.53;1.17;;;18.40;74.70;;;;;;2287461;55;21051;-71
2023/08/30 01:50:40;;;;;;;3.17;1.67;;;18.40;75.20;;;;;;2516612;55;21435;-70
2023/08/30 01:53:07;;;;;;;3.10;1.40;;;18.40;75.30;;;;;;2520560;55;20946;-68
2023/08/30 01:55:33;;;;;;;2.55;1.48;;;18.40;75.40;;;;;;2520619;55;21010;-68
2023/08/30 01:58:00;;;;;;;2.80;1.20;;;18.40;76.10;;;;;;2519503;55;21928;-67
2023/08/30 02:00:26;;;;;;;2.03;1.08;;;18.40;75.30;;;;;;2285582;55;21416;-69
2023/08/30 02:02:52;;;;;;;2.22;1.20;;;18.40;75.40;;;;;;2519678;55;21005;-69
2023/08/30 02:05:19;;;;;;;2.00;1.10;;;18.40;75.40;;;;;;2521040;55;21439;-67
2023/08/30 02:07:58;;;;;;;3.85;1.40;;;18.40;75.40;;;;;;2520476;55;20969;-68
2023/08/30 02:10:38;;;;;;;3.60;1.50;;;18.40;74.70;;;;;;2286889;55;21061;-67
2023/08/30 02:13:04;;;;;;;2.20;1.10;;;18.40;74.70;;;;;;2488803;55;20995;-71
2023/08/30 02:15:31;;;;;;;2.28;1.17;;;18.40;75.30;;;;;;2520415;55;20923;-70
2023/08/30 02:17:58;;;;;;;2.12;1.17;;;18.40;75.30;;;;;;2285877;55;21747;-70
2023/08/30 02:20:24;;;;;;;2.25;1.17;;;18.30;75.20;;;;;;2283819;56;21013;-69
2023/08/30 02:22:50;;;;;;;2.03;1.10;;;18.40;75.30;;;;;;2520485;55;21532;-70
2023/08/30 02:25:18;;;;;;;2.33;1.23;;;18.40;75.30;;;;;;2520167;55;21455;-68
2023/08/30 02:27:44;;;;;;;2.20;1.00;;;18.30;75.20;;;;;;2517943;55;21392;-70
2023/08/30 02:30:11;;;;;;;2.17;1.17;;;18.40;75.30;;;;;;2287572;55;21002;-69
2023/08/30 02:32:38;;;;;;;2.45;1.33;;;18.40;75.30;;;;;;2287660;55;21852;-68
2023/08/30 02:35:05;;;;;;;2.37;1.35;;;18.30;75.10;;;;;;2286751;55;20967;-69
2023/08/30 02:37:31;;;;;;;1.92;1.00;;;18.30;75.10;;;;;;2287708;55;20926;-71
2023/08/30 02:39:58;;;;;;;2.05;1.10;;;18.30;75.10;;;;;;2520850;55;22252;-70
2023/08/30 02:42:25;;;;;;;2.20;1.27;;;18.30;75.10;;;;;;2520759;55;20930;-71
2023/08/30 02:44:53;;;;;;;4.55;1.48;;;18.30;75.10;;;;;;2286234;55;21427;-70
2023/08/30 02:47:19;;;;;;;2.20;1.30;;;18.30;75.20;;;;;;2521954;55;21463;-69
2023/08/30 02:49:46;;;;;;;2.80;1.42;;;18.30;75.40;;;;;;2484080;55;21721;-71
2023/08/30 02:52:12;;;;;;;3.42;1.48;;;18.30;75.40;;;;;;2256198;56;20973;-68
2023/08/30 02:54:38;;;;;;;2.75;1.50;;;18.30;75.50;;;;;;2483790;55;21023;-71
2023/08/30 02:57:05;;;;;;;2.70;1.40;;;18.30;75.60;;;;;;2484328;55;20944;-70
2023/08/30 02:59:32;;;;;;;2.40;1.40;;;18.30;75.60;;;;;;2256329;56;20934;-70
2023/08/30 03:01:59;;;;;;;2.50;1.33;;;18.30;75.60;;;;;;2484230;55;21345;-69
2023/08/30 03:04:25;;;;;;;2.70;1.58;;;18.30;75.50;;;;;;2256864;56;21846;-70
2023/08/30 03:06:52;;;;;;;2.62;1.50;;;18.30;75.40;;;;;;2483924;55;21108;-69
2023/08/30 03:09:19;;;;;;;2.62;1.48;;;18.30;75.40;;;;;;2483848;55;20951;-70
2023/08/30 03:11:45;;;;;;;2.45;1.30;;;18.30;75.50;;;;;;2256382;56;21049;-70
2023/08/30 03:14:11;;;;;;;3.55;1.33;;;18.30;75.50;;;;;;2484298;55;21053;-71
2023/08/30 03:16:39;;;;;;;2.60;1.45;;;18.30;75.50;;;;;;2255778;56;21009;-69
2023/08/30 03:19:05;;;;;;;3.03;1.40;;;18.30;75.60;;;;;;2483137;55;20954;-68
2023/08/30 03:21:31;;;;;;;2.28;1.33;;;18.30;75.60;;;;;;2484294;55;20930;-66
2023/08/30 03:23:58;;;;;;;2.47;1.52;;;18.30;75.60;;;;;;2255633;56;20984;-71
2023/08/30 03:26:24;;;;;;;2.90;1.60;;;18.30;75.60;;;;;;2256479;56;20953;-70
2023/08/30 03:28:51;;;;;;;2.60;1.50;;;18.30;75.60;;;;;;2479155;55;21026;-70
2023/08/30 03:31:19;;;;;;;2.37;1.30;;;18.30;75.60;;;;;;2256149;56;20986;-70
2023/08/30 03:33:46;;;;;;;2.40;1.48;;;18.40;75.60;;;;;;2521175;55;20954;-68
2023/08/30 03:36:17;;;;;;;2.80;1.50;;;18.40;75.70;;;;;;2484076;55;21076;-70
2023/08/30 03:38:43;;;;;;;4.12;1.58;;;18.30;75.50;;;;;;2481570;55;21009;-68
2023/08/30 03:41:11;;;;;;;2.53;1.58;;;18.40;75.60;;;;;;2461479;54;20927;-68
2023/08/30 03:43:38;;;;;;;3.00;1.70;;;18.30;75.50;;;;;;2251437;56;20953;-69
2023/08/30 03:46:04;;;;;;;4.07;1.40;;;18.30;75.50;;;;;;2483882;55;20941;-67
2023/08/30 03:48:32;;;;;;;3.85;1.60;;;18.40;75.70;;;;;;2491160;54;21056;-71
2023/08/30 03:50:58;;;;;;;2.75;1.48;;;18.40;75.60;;;;;;2483224;55;20955;-71
2023/08/30 03:53:25;;;;;;;2.12;1.12;;;18.40;75.60;;;;;;2483393;55;20930;-71
2023/08/30 03:55:51;;;;;;;2.45;1.40;;;18.40;75.60;;;;;;2483349;55;20929;-69
2023/08/30 03:58:22;;;;;;;2.37;1.42;;;18.40;75.70;;;;;;2256059;56;20955;-67
2023/08/30 04:00:48;;;;;;;2.10;1.30;;;18.40;75.50;;;;;;2261616;56;21046;-68
2023/08/30 04:03:15;;;;;;;2.17;1.20;;;18.40;75.70;;;;;;2472244;55;21038;-67
2023/08/30 04:05:41;;;;;;;2.60;1.30;;;18.40;75.80;;;;;;2464896;55;20987;-68
2023/08/30 04:08:08;;;;;;;2.10;1.17;;;18.40;75.70;;;;;;2510778;55;20982;-68
2023/08/30 04:10:36;;;;;;;2.50;1.30;;;18.40;75.70;;;;;;2278522;56;21867;-69
2023/08/30 04:13:03;;;;;;;2.67;1.50;;;18.40;75.60;;;;;;2510251;55;20935;-69
2023/08/30 04:15:33;;;;;;;2.03;1.10;;;18.40;75.60;;;;;;2510263;55;21008;-67
2023/08/30 04:18:05;;;;;;;2.58;1.40;;;18.40;75.50;;;;;;2510272;55;21607;-67
2023/08/30 04:20:33;;;;;;;2.55;1.50;;;18.40;75.30;;;;;;2510724;55;20970;-71
2023/08/30 04:23:01;;;;;;;2.97;1.60;;;18.40;75.50;;;;;;2510288;55;20978;-67
2023/08/30 04:25:28;;;;;;;2.90;1.50;;;18.40;75.60;;;;;;2277808;56;20991;-69
2023/08/30 04:27:56;;;;;;;2.30;1.20;;;18.40;75.60;;;;;;2277880;56;20943;-69
2023/08/30 04:30:23;;;;;;;3.22;1.33;;;18.40;75.60;;;;;;2510528;55;20923;-68
2023/08/30 04:32:49;;;;;;;2.28;1.10;;;18.40;75.70;;;;;;2277633;55;20994;-71
2023/08/30 04:35:16;;;;;;;2.30;1.30;;;18.40;75.70;;;;;;2261298;56;20997;-71
2023/08/30 04:37:43;;;;;;;2.17;1.20;;;18.40;75.60;;;;;;2482646;55;21089;-69
2023/08/30 04:40:10;;;;;;;2.50;1.40;;;18.40;75.60;;;;;;2490149;55;20971;-70
2023/08/30 04:42:36;;;;;;;2.30;1.40;;;18.40;75.50;;;;;;2482931;55;20947;-70
2023/08/30 04:45:03;;;;;;;2.65;1.30;;;18.40;75.60;;;;;;2482970;55;21870;-70
2023/08/30 04:47:33;;;;;;;2.50;1.33;;;18.40;75.60;;;;;;2494771;55;21102;-69
2023/08/30 04:49:59;;;;;;;3.00;1.58;;;18.30;75.60;;;;;;2261763;56;21098;-70
2023/08/30 04:52:26;;;;;;;2.67;1.52;;;18.40;75.70;;;;;;2483158;55;21527;-70
2023/08/30 04:54:53;;;;;;;2.55;1.40;;;18.40;75.70;;;;;;2256593;56;20966;-67
2023/08/30 04:57:20;;;;;;;2.65;1.40;;;18.40;75.80;;;;;;2256631;56;21056;-68
2023/08/30 04:59:46;;;;;;;2.53;1.50;;;18.40;75.80;;;;;;2482901;55;20972;-69
2023/08/30 05:02:15;;;;;;;2.85;1.60;;;18.40;75.80;;;;;;2482862;55;21546;-69
2023/08/30 05:04:42;;;;;;;2.92;1.52;;;18.40;75.90;;;;;;2482736;55;20954;-68
2023/08/30 05:07:10;;;;;;;2.92;1.80;;;18.40;75.90;;;;;;2256012;56;21038;-70
2023/08/30 05:09:37;;;;;;;3.70;1.60;;;18.40;75.90;;;;;;2486164;55;20961;-69
2023/08/30 05:12:05;;;;;;;3.05;1.70;;;18.40;75.90;;;;;;2483236;55;21030;-70
2023/08/30 05:14:32;;;;;;;2.58;1.52;;;18.40;75.90;;;;;;2256384;56;21019;-69
2023/08/30 05:16:59;;;;;;;3.05;1.95;;;18.40;76.00;;;;;;2482608;55;20966;-69
2023/08/30 05:19:25;;;;;;;3.05;1.67;;;18.40;76.00;;;;;;2484035;55;20947;-69
2023/08/30 05:21:54;;;;;;;2.40;1.40;;;18.40;76.10;;;;;;2256078;56;20989;-71
2023/08/30 05:24:23;;;;;;;3.37;1.58;;;18.40;76.10;;;;;;2262000;56;21042;-70
2023/08/30 05:26:49;;;;;;;2.70;1.67;;;18.40;76.10;;;;;;2483369;55;20941;-69
2023/08/30 05:29:16;;;;;;;3.05;1.67;;;18.50;76.20;;;;;;2257037;56;21014;-69
2023/08/30 05:31:43;;;;;;;3.95;1.87;;;18.50;76.20;;;;;;2482552;55;21048;-70
2023/08/30 05:34:10;;;;;;;2.40;1.45;;;18.50;76.20;;;;;;2256444;56;20937;-69
2023/08/30 05:36:37;;;;;;;4.28;1.90;;;18.50;76.20;;;;;;2483699;55;21027;-70
2023/08/30 05:39:07;;;;;;;2.42;1.40;;;18.50;76.10;;;;;;2259467;56;20946;-69
2023/08/30 05:41:34;;;;;;;2.50;1.40;;;18.50;76.00;;;;;;2481195;55;20925;-69
2023/08/30 05:44:00;;;;;;;2.33;1.40;;;18.50;75.90;;;;;;2483000;55;21009;-68
2023/08/30 05:46:27;;;;;;;2.35;1.37;;;18.50;75.80;;;;;;2261590;56;21544;-70
2023/08/30 05:48:54;;;;;;;4.18;1.62;;;18.50;75.80;;;;;;2483423;55;21831;-69
2023/08/30 05:51:21;;;;;;;2.42;1.52;;;18.50;75.80;;;;;;2482816;55;21001;-70
2023/08/30 05:53:50;;;;;;;3.17;1.80;;;18.50;75.90;;;;;;2483366;55;20951;-69
2023/08/30 05:56:17;;;;;;;3.83;2.10;;;18.50;76.00;;;;;;2254619;56;21040;-70
2023/08/30 05:58:43;;;;;;;4.45;1.70;;;18.50;76.10;;;;;;2482380;55;21038;-71
2023/08/30 06:01:09;;;;;;;3.40;1.90;;;18.50;76.20;;;;;;2256831;56;21475;-69
2023/08/30 06:03:36;;;;;;;3.33;2.08;;;18.50;76.30;;;;;;2254745;56;20987;-69
2023/08/30 06:06:03;;;;;;;4.15;2.15;;;18.60;76.40;;;;;;2458973;55;21495;-68
2023/08/30 06:08:29;;;;;;;3.03;2.10;;;18.60;76.50;;;;;;2483729;55;21036;-70
2023/08/30 06:10:56;;;;;;;3.45;1.95;;;18.60;76.50;;;;;;2474042;55;20969;-69
2023/08/30 06:13:25;;;;;;;3.37;1.92;;;18.60;76.60;;;;;;2474434;55;22499;-69
2023/08/30 06:15:51;;;;;;;4.57;1.87;;;18.60;76.40;;;;;;2255337;56;21020;-70
2023/08/30 06:18:18;;;;;;;3.22;1.90;;;18.60;76.70;;;;;;2483802;55;20953;-67
2023/08/30 06:20:48;;;;;;;4.22;1.95;;;18.60;76.70;;;;;;2470698;55;20985;-69
2023/08/30 06:23:15;;;;;;;3.40;2.05;;;18.70;76.60;;;;;;2474722;55;21464;-69
2023/08/30 06:25:41;;;;;;;2.90;1.92;;;18.70;76.80;;;;;;2493596;55;21015;-69
2023/08/30 06:28:09;;;;;;;3.65;1.95;;;18.70;76.90;;;;;;2256567;56;20966;-70
2023/08/30 06:30:35;;;;;;;5.18;2.40;;;18.70;76.90;;;;;;2476422;55;21476;-70
2023/08/30 06:33:02;;;;;;;3.08;1.87;;;18.80;76.90;;;;;;2253656;56;21005;-71
2023/08/30 06:35:28;;;;;;;2.85;1.67;;;18.80;76.90;;;;;;2483615;55;21020;-70
2023/08/30 06:37:55;;;;;;;3.37;1.60;;;18.80;76.90;;;;;;2255896;56;21069;-70
2023/08/30 06:40:22;;;;;;;2.60;1.48;;;18.80;76.90;;;;;;2483828;55;21495;-70
2023/08/30 06:42:48;;;;;;;2.72;1.77;;;18.90;77.00;;;;;;2256003;56;20982;-69
2023/08/30 06:45:16;;;;;;;3.20;1.60;;;18.90;76.90;;;;;;2483184;55;20998;-69
2023/08/30 06:47:42;;;;;;;2.80;1.62;;;18.90;77.00;;;;;;2482458;55;20966;-70
2023/08/30 06:50:09;;;;;;;5.30;2.03;;;19.00;77.10;;;;;;2483467;55;20944;-69
2023/08/30 06:52:36;;;;;;;3.97;2.10;;;19.00;77.20;;;;;;2484222;55;21030;-69
2023/08/30 06:55:07;;;;;;;4.18;2.25;;;19.00;77.10;;;;;;2455354;55;20960;-67
2023/08/30 06:57:34;;;;;;;3.78;2.37;;;19.00;76.90;;;;;;2490828;55;20986;-71
2023/08/30 07:00:07;;;;;;;3.40;2.22;;;19.10;77.10;;;;;;2483588;55;21939;-70
2023/08/30 07:02:38;;;;;;;3.70;2.40;;;19.10;77.10;;;;;;2256844;56;21018;-71
2023/08/30 07:05:06;;;;;;;3.27;2.03;;;19.10;77.00;;;;;;2272941;56;21108;-69
2023/08/30 07:07:33;;;;;;;3.85;2.70;;;19.20;77.10;;;;;;2461149;55;21025;-71
2023/08/30 07:10:00;;;;;;;3.40;2.45;;;19.20;77.10;;;;;;2520382;55;21065;-71
2023/08/30 07:12:26;;;;;;;3.50;2.30;;;19.20;77.10;;;;;;2257772;56;21798;-70
2023/08/30 07:15:03;;;;;;;3.25;2.30;;;19.30;77.10;;;;;;2483235;55;21487;-70
2023/08/30 07:17:29;;;;;;;3.85;2.35;;;19.30;76.50;;;;;;2256031;56;21450;-69
2023/08/30 07:20:04;;;;;;;3.30;2.50;;;19.30;77.00;;;;;;2483231;55;20987;-71
2023/08/30 07:22:31;;;;;;;3.78;2.40;;;19.30;76.90;;;;;;2483861;55;21023;-69
2023/08/30 07:24:57;;;;;;;3.50;2.42;;;19.40;76.90;;;;;;2255919;56;21182;-70
2023/08/30 07:27:23;;;;;;;3.50;2.05;;;19.40;76.70;;;;;;2483185;55;20990;-71
2023/08/30 07:29:50;;;;;;;3.40;2.50;;;19.40;76.70;;;;;;2483332;55;21034;-70
2023/08/30 07:32:17;;;;;;;3.30;2.30;;;19.40;76.60;;;;;;2256043;56;21054;-69
2023/08/30 07:34:44;;;;;;;3.47;2.30;;;19.40;76.50;;;;;;2489127;55;20952;-70
2023/08/30 07:37:20;;;;;;;3.03;2.10;;;19.50;76.60;;;;;;2254342;56;20982;-70
2023/08/30 07:39:46;;;;;;;3.12;2.00;;;19.50;76.10;;;;;;2255558;56;20954;-71
2023/08/30 07:42:16;;;;;;;3.22;2.15;;;19.50;76.60;;;;;;2256149;56;20953;-70
2023/08/30 07:44:42;;;;;;;3.12;1.50;;;19.60;76.70;;;;;;2255412;56;21591;-70
2023/08/30 07:47:09;;;;;;;4.32;2.05;;;19.60;76.80;;;;;;2483623;55;20949;-68
2023/08/30 07:49:35;;;;;;;3.22;2.03;;;19.60;76.90;;;;;;2483224;55;20962;-67
2023/08/30 07:52:01;;;;;;;3.85;1.87;;;19.60;76.90;;;;;;2256890;56;20969;-68
2023/08/30 07:54:28;;;;;;;3.55;2.00;;;19.70;76.90;;;;;;2475436;55;20971;-67
2023/08/30 07:56:54;;;;;;;3.58;2.25;;;19.70;76.90;;;;;;2482489;55;21039;-71
2023/08/30 07:59:21;;;;;;;3.30;2.30;;;19.70;76.80;;;;;;2482321;55;21058;-70
2023/08/30 08:01:47;;;;;;;3.45;2.30;;;19.70;76.80;;;;;;2482756;55;20985;-70
2023/08/30 08:04:14;;;;;;;3.08;2.10;;;19.80;76.90;;;;;;2493971;55;21397;-69
2023/08/30 08:06:41;;;;;;;3.10;1.75;;;19.80;77.00;;;;;;2511071;55;21492;-71
2023/08/30 08:09:07;;;;;;;5.60;4.15;;;19.90;77.10;;;;;;2510661;55;20932;-69
2023/08/30 08:11:33;;;;;;;6.15;4.32;;;19.90;77.00;;;;;;2279038;56;20895;-72
2023/08/30 08:14:00;;;;;;;5.25;3.67;;;19.90;77.00;;;;;;2278108;55;20943;-69
2023/08/30 08:16:27;;;;;;;4.43;2.85;;;19.90;77.00;;;;;;2508725;55;21548;-71
2023/08/30 08:19:01;;;;;;;5.32;2.60;;;19.90;76.90;;;;;;2277078;56;20967;-69
2023/08/30 08:21:27;;;;;;;3.92;2.70;;;20.00;77.40;;;;;;2498020;55;21026;-70
2023/08/30 08:23:53;;;;;;;3.42;2.37;;;20.00;76.90;;;;;;2252344;56;21082;-70
2023/08/30 08:26:20;;;;;;;3.50;2.15;;;20.10;77.00;;;;;;2260913;56;20963;-69
2023/08/30 08:28:46;;;;;;;3.35;2.22;;;20.10;77.00;;;;;;2479024;55;21037;-71
2023/08/30 08:31:14;;;;;;;3.70;2.10;;;20.10;77.00;;;;;;2256922;56;21791;-70
2023/08/30 08:33:40;;;;;;;3.12;1.77;;;20.10;77.00;;;;;;2256210;56;20958;-70
2023/08/30 08:36:07;;;;;;;3.33;2.10;;;20.20;77.10;;;;;;2483040;55;21065;-69
2023/08/30 08:38:34;;;;;;;3.08;2.08;;;20.20;77.10;;;;;;2483766;55;20950;-70
2023/08/30 08:41:05;;;;;;;2.75;1.80;;;20.20;77.10;;;;;;2482753;55;21021;-70
2023/08/30 08:43:36;;;;;;;2.85;1.92;;;20.30;77.00;;;;;;2255746;56;21028;-69
2023/08/30 08:46:03;;;;;;;3.00;2.00;;;20.30;77.00;;;;;;2482637;55;21094;-69
2023/08/30 08:48:33;;;;;;;4.40;2.20;;;20.40;77.30;;;;;;2475392;55;21015;-69
2023/08/30 08:51:03;;;;;;;3.25;2.10;;;20.40;77.00;;;;;;2482762;55;21077;-70
2023/08/30 08:53:30;;;;;;;3.97;2.25;;;20.40;77.30;;;;;;2231811;56;21384;-71
2023/08/30 08:55:58;;;;;;;3.35;2.30;;;20.40;77.40;;;;;;2508657;55;20903;-69
2023/08/30 08:58:24;;;;;;;3.83;2.15;;;20.50;77.40;;;;;;2277121;56;20932;-70
2023/08/30 09:00:51;;;;;;;2.80;2.00;;;20.50;77.30;;;;;;2491886;54;20965;-70
2023/08/30 09:03:18;;;;;;;3.10;2.00;;;20.60;77.50;;;;;;2480858;55;21019;-71
2023/08/30 09:05:48;;;;;;;4.40;2.33;;;20.60;77.30;;;;;;2489193;55;20995;-70
2023/08/30 09:08:15;;;;;;;4.45;2.42;;;20.60;77.30;;;;;;2482659;55;21009;-69
2023/08/30 09:10:43;;;;;;;3.05;2.17;;;20.70;77.30;;;;;;2459548;55;21019;-69
2023/08/30 09:13:10;;;;;;;4.22;2.40;;;20.70;77.30;;;;;;2462341;55;21045;-70
2023/08/30 09:15:37;;;;;;;3.62;2.10;;;20.70;77.20;;;;;;2482962;55;20966;-69
2023/08/30 09:18:04;;;;;;;3.95;2.30;;;20.80;77.00;;;;;;2255502;56;20994;-69
2023/08/30 09:20:32;;;;;;;3.17;2.00;;;20.80;77.10;;;;;;2252526;56;20984;-68
2023/08/30 09:23:00;;;;;;;3.05;2.00;;;20.80;77.10;;;;;;2253404;56;21001;-68
2023/08/30 09:25:29;;;;;;;3.33;2.30;;;20.90;77.30;;;;;;2255502;56;21024;-70
2023/08/30 09:28:00;;;;;;;3.20;2.28;;;20.90;77.20;;;;;;2482756;55;20957;-69
2023/08/30 09:30:29;;;;;;;3.55;2.58;;;21.00;76.80;;;;;;2483234;55;20966;-69
2023/08/30 09:33:03;;;;;;;3.90;2.50;;;21.00;77.20;;;;;;2482818;55;21001;-69
2023/08/30 09:35:30;;;;;;;3.40;1.95;;;21.10;76.90;;;;;;2482943;55;21725;-69
2023/08/30 09:37:59;;;;;;;4.72;2.50;;;21.10;77.20;;;;;;2254980;56;20942;-69
2023/08/30 09:40:25;;;;;;;4.45;2.25;;;21.10;77.20;;;;;;2255596;56;21919;-70
2023/08/30 09:42:55;;;;;;;4.45;2.33;;;21.10;77.30;;;;;;2254912;56;21008;-67
2023/08/30 09:45:33;;;;;;;4.68;2.58;;;21.20;77.40;;;;;;2483184;55;20934;-69
2023/08/30 09:48:01;;;;;;;4.25;2.22;;;21.20;77.20;;;;;;2253661;56;20958;-68
2023/08/30 09:50:27;;;;;;;4.60;2.55;;;21.30;77.30;;;;;;2254847;56;20952;-68
2023/08/30 09:52:55;;;;;;;3.37;2.30;;;21.30;77.50;;;;;;2483103;55;21998;-70
2023/08/30 09:55:21;;;;;;;3.97;2.58;;;21.40;77.50;;;;;;2483418;55;21874;-69
2023/08/30 09:57:48;;;;;;;3.20;2.15;;;21.40;78.20;;;;;;2263420;56;20998;-69
2023/08/30 10:00:17;;;;;;;3.15;2.00;;;21.50;77.40;;;;;;2489451;55;20996;-68
2023/08/30 10:02:44;;;;;;;3.22;1.90;;;21.50;77.40;;;;;;2481669;55;20977;-69
2023/08/30 10:05:22;;;;;;;3.37;2.33;;;21.60;77.40;;;;;;2471780;55;21003;-68
2023/08/30 10:07:49;;;;;;;3.10;2.08;;;21.60;77.30;;;;;;2489288;55;20958;-69
2023/08/30 10:10:19;;;;;;;3.22;2.30;;;21.60;77.30;;;;;;2482942;55;21040;-68
2023/08/30 10:12:46;;;;;;;3.15;2.22;;;21.70;76.90;;;;;;2468726;55;21053;-68
2023/08/30 10:15:16;;;;;;;3.42;1.85;;;21.70;77.00;;;;;;2457911;55;20994;-70
2023/08/30 10:17:48;;;;;;;3.85;1.98;;;21.80;77.20;;;;;;2465459;55;21566;-70
2023/08/30 10:20:18;;;;;;;3.10;2.15;;;21.80;76.80;;;;;;2482067;55;20948;-68
2023/08/30 10:22:45;;;;;;;3.25;2.20;;;21.80;77.00;;;;;;2484995;55;21056;-70
2023/08/30 10:25:16;;;;;;;3.45;2.00;;;21.90;77.10;;;;;;2486086;55;21003;-69
2023/08/30 10:27:49;;;;;;;3.20;2.25;;;21.90;77.10;;;;;;2469705;55;20955;-68
2023/08/30 10:30:16;;;;;;;3.65;2.20;;;22.00;77.10;;;;;;2462926;55;21028;-69
2023/08/30 10:32:43;;;;;;;3.65;2.10;;;22.00;77.10;;;;;;2240583;56;21390;-68
2023/08/30 10:35:15;;;;;;;3.33;2.12;;;22.10;77.20;;;;;;2461137;55;21870;-68
2023/08/30 10:37:42;;;;;;;3.87;2.10;;;22.10;77.00;;;;;;2253239;56;20958;-68
2023/08/30 10:40:10;;;;;;;2.72;1.70;;;22.20;77.10;;;;;;2503053;55;21022;-67
2023/08/30 10:42:36;;;;;;;2.62;1.50;;;22.20;77.20;;;;;;2516183;55;20942;-70
2023/08/30 10:45:22;;;;;;;2.83;1.70;;;22.20;77.30;;;;;;2511662;55;20973;-71
2023/08/30 10:47:54;;;;;;;2.78;1.77;;;22.30;76.70;;;;;;2248535;56;20961;-67
2023/08/30 10:50:28;;;;;;;3.90;2.08;;;22.40;76.50;;;;;;2483730;55;20969;-68
2023/08/30 10:52:58;;;;;;;3.12;2.00;;;22.40;76.30;;;;;;2483858;55;21010;-69
2023/08/30 10:55:27;;;;;;;2.58;1.58;;;22.40;76.30;;;;;;2255605;56;21013;-69
2023/08/30 10:58:04;;;;;;;2.40;1.58;;;22.40;76.10;;;;;;2255381;56;20906;-69
2023/08/30 11:00:33;;;;;;;3.92;1.65;;;22.50;75.80;;;;;;2470784;55;20922;-68
2023/08/30 11:03:14;;;;;;;2.90;1.75;;;22.50;76.40;;;;;;2257673;56;21009;-70
2023/08/30 11:05:45;;;;;;;3.00;1.90;;;22.50;76.20;;;;;;2472804;55;20988;-71
2023/08/30 11:08:20;;;;;;;3.17;1.70;;;22.60;76.50;;;;;;2425833;55;20959;-70
2023/08/30 11:11:03;;;;;;;2.97;1.87;;;22.60;76.50;;;;;;2471701;55;20934;-72
2023/08/30 11:13:37;;;;;;;3.75;2.03;;;22.70;75.00;;;;;;2478366;55;20958;-71
2023/08/30 11:16:24;;;;;;;2.75;1.65;;;22.70;76.00;;;;;;2465395;55;21896;-71
2023/08/30 11:18:56;;;;;;;3.42;1.80;;;22.70;75.80;;;;;;2484255;55;21802;-72
2023/08/30 11:21:23;;;;;;;3.00;2.00;;;22.70;76.40;;;;;;2483731;55;21983;-73
2023/08/30 11:23:49;;;;;;;4.05;1.67;;;22.80;76.40;;;;;;2255952;56;20945;-73
2023/08/30 11:26:16;;;;;;;3.33;1.80;;;22.80;76.30;;;;;;2483723;55;21370;-72
2023/08/30 11:28:48;;;;;;;3.12;1.62;;;22.80;76.10;;;;;;2483255;55;20948;-72
2023/08/30 11:31:19;;;;;;;;;;;22.90;76.20;;;;;;2259231;56;21529;-72
2023/08/30 11:33:54;;;;;;;4.37;1.65;;;23.00;74.30;;;;;;2482998;55;20060;-72
2023/08/30 11:36:22;;;;;;;3.05;1.65;;;23.00;75.10;;;;;;2255636;56;20972;-72
2023/08/30 11:38:49;;;;;;;3.15;1.65;;;23.00;76.00;;;;;;2252153;56;20970;-72
2023/08/30 11:41:15;;;;;;;3.20;2.08;;;23.10;76.00;;;;;;2477637;55;21013;-73
2023/08/30 11:43:42;;;;;;;3.85;1.75;;;23.10;76.20;;;;;;2254141;56;21447;-72
2023/08/30 11:46:12;;;;;;;3.10;1.67;;;23.10;76.20;;;;;;2254364;56;20938;-72
2023/08/30 11:48:40;;;;;;;2.90;1.67;;;23.20;76.30;;;;;;2482537;55;20965;-73
2023/08/30 11:51:07;;;;;;;3.28;2.00;;;23.20;76.10;;;;;;2469718;55;20933;-72
2023/08/30 11:53:34;;;;;;;3.55;1.95;;;23.30;76.40;;;;;;2255919;56;21763;-72
2023/08/30 11:56:00;;;;;;;3.17;1.87;;;23.30;76.30;;;;;;2482002;55;21869;-71
2023/08/30 11:58:31;;;;;;;2.58;1.58;;;23.40;76.30;;;;;;2482509;55;20980;-72
2023/08/30 12:00:57;;;;;;;2.60;1.67;;;23.40;76.20;;;;;;2256121;56;20984;-72
2023/08/30 12:03:27;;;;;;;2.83;1.77;;;23.50;76.00;;;;;;2254664;56;21048;-73
2023/08/30 12:05:53;;;;;;;2.85;1.70;;;23.50;75.50;;;;;;2254921;56;20965;-72
2023/08/30 12:08:22;;;;;;;4.68;2.00;;;23.60;75.80;;;;;;2255335;56;21009;-71
2023/08/30 12:10:48;;;;;;;3.10;2.12;;;23.60;75.60;;;;;;2470856;55;20937;-72
2023/08/30 12:13:31;;;;;;;2.97;1.70;;;23.60;75.50;;;;;;2247209;56;20958;-72
2023/08/30 12:15:58;;;;;;;4.40;1.85;;;23.70;74.50;;;;;;2254290;56;20921;-72
2023/08/30 12:18:28;;;;;;;2.55;1.58;;;23.70;75.20;;;;;;2481923;55;21077;-70
2023/08/30 12:20:56;;;;;;;4.28;1.70;;;23.80;74.90;;;;;;2480867;55;21001;-73
2023/08/30 12:23:23;;;;;;;2.90;1.62;;;23.80;74.70;;;;;;2482940;55;21013;-71
2023/08/30 12:26:06;;;;;;;5.32;1.50;;;23.80;74.40;;;;;;2482242;55;20929;-72
2023/08/30 12:28:34;;;;;;;4.57;1.85;;;23.80;72.60;;;;;;2477591;55;20949;-72
2023/08/30 12:31:03;;;;;;;2.55;1.50;;;23.80;73.80;;;;;;2465671;56;21155;-72
2023/08/30 12:33:32;;;;;;;3.25;1.80;;;23.80;74.20;;;;;;2481563;55;21009;-71
2023/08/30 12:35:59;;;;;;;2.70;1.50;;;23.90;74.20;;;;;;2255323;56;21625;-71
2023/08/30 12:38:27;;;;;;;3.05;1.50;;;23.90;74.10;;;;;;2482383;55;21588;-70
2023/08/30 12:40:54;;;;;;;2.78;1.60;;;23.90;74.00;;;;;;2255287;56;20993;-73
2023/08/30 12:43:21;;;;;;;2.15;1.20;;;23.90;73.80;;;;;;2483155;55;20965;-72
2023/08/30 12:45:51;;;;;;;2.35;1.23;;;23.90;73.80;;;;;;2481741;55;20937;-71
2023/08/30 12:48:18;;;;;;;2.45;1.52;;;23.90;73.60;;;;;;2254986;56;20981;-72
2023/08/30 12:50:46;;;;;;;3.08;1.42;;;23.90;73.80;;;;;;2481770;55;21010;-71
2023/08/30 12:53:13;;;;;;;2.30;1.40;;;23.90;73.70;;;;;;2481727;55;20989;-72
2023/08/30 12:55:40;;;;;;;2.75;1.48;;;24.00;74.10;;;;;;2254641;56;21459;-72
2023/08/30 12:58:07;;;;;;;3.60;1.83;;;24.00;74.20;;;;;;2254491;56;21327;-73
2023/08/30 13:00:34;;;;;;;2.83;1.40;;;24.00;74.20;;;;;;2254693;56;21060;-71